• Join FlightAware (Why Join?)
  • Login
  • US Flag 
01:41PM EDT


 

Airport Tracker/Info


-or-


 

Live Flight TrackerFlight Track Log ✈ AAL794 ✈ 15-Jul-2013 ✈ KLAS - KORD

Flight Track Log - Related Links

Times and Time Zones

All times are in EDT time to prevent confusion due to time zone crossing. See the AAL794 flight status page for this flight to view local times or setup timezone preferences in your user account.

Time Position Orientation Groundspeed Altitude Reporting Facility
EDT Latitude Longitude Course Direction KTS MPH feet Rate Location/Type
09:30PM 36.0764 -115.1894 94° East 191 220 3,400  Level Los Angeles Center
09:32PM 36.1833 -115.0733 90° East  Level FlightAware Approximate
09:32PM 36.1092 -115.2964 291° West 237 273 6,500  Level Salt Lake Center
09:32PM 36.1625 -115.2781 16° North 251 289 8,200 1,620 Climbing Los Angeles Center
09:33PM 36.1833 -114.9226 90° East  Level FlightAware Approximate
09:33PM 36.1900 -115.2053 65° Northeast 280 322 9,200  Level Los Angeles Center
09:34PM 36.1988 -114.7738 78° East  Level FlightAware Approximate
09:34PM 36.1969 -115.0883 86° East 316 364 10,900  Level Los Angeles Center
09:35PM 36.1921 -114.6236 94° East  Level FlightAware Approximate
09:36PM 36.2114 -114.9403 83° East 365 420 12,600  Level Los Angeles Center
09:37PM 36.3058 -114.8308 43° Northeast 392 451 15,300 2,280 Climbing Los Angeles Center
09:38PM 36.3928 -114.7417 40° Northeast 405 466 17,400 2,100 Climbing Los Angeles Center
09:39PM 36.4742 -114.6406 45° Northeast 414 476 19,700 2,040 Climbing Los Angeles Center
09:40PM 36.5422 -114.5247 54° Northeast 415 478 21,700 1,740 Climbing Los Angeles Center
09:41PM 36.6044 -114.4039 57° Northeast 414 476 23,300 1,500 Climbing Los Angeles Center
09:42PM 36.6694 -114.2800 57° Northeast 423 487 24,800 1,380 Climbing Los Angeles Center
09:43PM 36.7456 -114.1400 56° Northeast 426 490 26,200 1,200 Climbing Los Angeles Center
09:44PM 36.8161 -114.0047 57° Northeast 436 502 27,300 1,020 Climbing Los Angeles Center
09:45PM 36.8800 -113.8817 57° Northeast 445 512 28,400 960 Climbing Los Angeles Center
09:46PM 36.9494 -113.7492 57° Northeast 452 520 29,300 780 Climbing Los Angeles Center
09:47PM 37.0197 -113.6172 56° Northeast 456 525 30,000 780 Climbing Los Angeles Center
09:48PM 37.0917 -113.4797 57° Northeast 465 535 30,900 1,140 Climbing Los Angeles Center
09:49PM 37.1747 -113.3175 57° Northeast 464 534 32,400 960 Climbing Los Angeles Center
09:50PM 37.2442 -113.1836 57° Northeast 460 529 32,900 240 Climbing Los Angeles Center
09:51PM 37.3139 -113.0489 57° Northeast 462 532 33,000  Climbing Los Angeles Center
09:52PM 37.4042 -112.9436 43° Northeast 457 526 33,000  Level Los Angeles Center
09:53PM 37.5106 -112.8606 32° Northeast 459 528 33,000  Level Salt Lake Center
09:54PM 37.6406 -112.7628 31° Northeast 477 549 33,000  Level Salt Lake Center
09:55PM 37.7500 -112.6803 31° Northeast 466 536 33,000  Level Salt Lake Center
09:56PM 37.8497 -112.5753 40° Northeast 472 543 33,000  Level Salt Lake Center
09:57PM 37.9192 -112.4403 57° Northeast 460 529 33,000  Level Salt Lake Center
09:58PM 37.9889 -112.3036 57° Northeast 462 532 33,000  Level Salt Lake Center
09:59PM 38.0567 -112.1683 58° Northeast 458 527 33,000  Level Salt Lake Center
10:00PM 38.1047 -112.0206 68° East 453 521 33,000  Level Salt Lake Center
10:01PM 38.1583 -111.8400 69° East 455 524 33,000  Level Salt Lake Center
10:02PM 38.2311 -111.7050 56° Northeast 460 529 33,000  Level Salt Lake Center
10:03PM 38.3019 -111.5683 57° Northeast 464 534 33,000  Level Salt Lake Center
10:04PM 38.3722 -111.4328 56° Northeast 460 529 33,000  Level Salt Lake Center
10:05PM 38.4425 -111.2939 57° Northeast 465 535 33,000  Level Salt Lake Center
10:07PM 38.5131 -111.1539 57° Northeast 469 540 33,000  Level Salt Lake Center
10:08PM 38.5856 -111.0133 57° Northeast 473 544 33,000  Level Salt Lake Center
10:09PM 38.6658 -110.8533 57° Northeast 467 537 33,000  Level Salt Lake Center
10:10PM 38.7331 -110.7197 57° Northeast 465 535 33,000  Level Salt Lake Center
10:11PM 38.8119 -110.5614 57° Northeast 470 541 33,000  Level Salt Lake Center
10:12PM 38.8783 -110.4272 58° Northeast 467 537 33,000  Level Salt Lake Center
10:12PM 38.9100 -110.3567 60° Northeast 469 540 33,000  Level Denver Center
10:13PM 38.9892 -110.1969 57° Northeast 475 547 33,000  Level Denver Center
10:14PM 39.0550 -110.0608 58° Northeast 469 540 33,000  Level Denver Center
10:15PM 39.0894 -109.9956 56° Northeast 466 536 33,000  Level Salt Lake Center
10:15PM 39.1311 -109.9033 60° Northeast 465 535 33,000  Level Denver Center
10:16PM 39.1658 -109.8378 56° Northeast 464 534 33,000  Level Salt Lake Center
10:17PM 39.2306 -109.7028 58° Northeast 463 533 33,000  Level Salt Lake Center
10:18PM 39.3078 -109.5425 58° Northeast 469 540 33,000  Level Salt Lake Center
10:19PM 39.3731 -109.4069 58° Northeast 465 535 33,000  Level Salt Lake Center
10:19PM 39.4044 -109.3369 60° Northeast 465 535 33,000  Level Denver Center
10:20PM 39.4806 -109.1775 58° Northeast 466 536 33,000  Level Denver Center
10:21PM 39.5144 -109.1097 57° Northeast 469 540 33,000  Level Salt Lake Center
10:22PM 39.5800 -108.9731 58° Northeast 468 539 33,000  Level Salt Lake Center
10:23PM 39.6556 -108.8147 58° Northeast 468 539 33,000  Level Salt Lake Center
10:24PM 39.6958 -108.7289 59° Northeast 483 556 33,000  Level Denver Center
10:25PM 39.7614 -108.5886 59° Northeast 473 544 33,000  Level Denver Center
10:26PM 39.8339 -108.4303 59° Northeast 459 528 33,000  Level Denver Center
10:27PM 39.8989 -108.2953 58° Northeast 459 528 33,000  Level Denver Center
10:28PM 39.9697 -108.1369 60° Northeast 452 520 33,000  Level Denver Center
10:29PM 40.0325 -108.0011 59° Northeast 455 524 33,000  Level Denver Center
10:30PM 40.1025 -107.8367 61° Northeast 462 532 33,000  Level Denver Center
10:31PM 40.1558 -107.6908 64° Northeast 465 535 33,000  Level Denver Center
10:32PM 40.2111 -107.5464 63° Northeast 465 535 33,000  Level Denver Center
10:33PM 40.2750 -107.3775 64° Northeast 464 534 33,000  Level Denver Center
10:34PM 40.3278 -107.2342 64° Northeast 460 529 33,000  Level Denver Center
10:35PM 40.3906 -107.0686 63° Northeast 455 524 33,000  Level Denver Center
10:36PM 40.4439 -106.9247 64° Northeast 458 527 33,000  Level Denver Center
10:37PM 40.4958 -106.7839 64° Northeast 460 529 33,000  Level Denver Center
10:38PM 40.5733 -106.5711 64° Northeast 459 528 33,000  Level Denver Center
10:39PM 40.6294 -106.4178 64° Northeast 458 527 33,000  Level Denver Center
10:40PM 40.6800 -106.2733 65° Northeast 454 522 33,000  Level Denver Center
10:41PM 40.7417 -106.1064 64° Northeast 456 525 33,000  Level Denver Center
10:42PM 40.7939 -105.9556 65° Northeast 453 521 33,000  Level Denver Center
10:43PM 40.8483 -105.8053 64° Northeast 455 524 33,000  Level Denver Center
10:44PM 40.9003 -105.6569 65° Northeast 449 517 33,000  Level Denver Center
10:45PM 40.9542 -105.5047 65° Northeast 453 521 33,000  Level Denver Center
10:46PM 41.0158 -105.3269 65° Northeast 454 522 33,000  Level Denver Center
10:47PM 41.0656 -105.1825 65° Northeast 455 524 33,000  Level Denver Center
10:48PM 41.1161 -105.0394 65° Northeast 450 518 33,000  Level Denver Center
10:49PM 41.1719 -104.8697 66° East 449 517 33,000  Level Denver Center
10:51PM 41.2189 -104.7278 66° East 444 511 33,000  Level Denver Center
10:52PM 41.2581 -104.5539 73° East 441 507 33,000  Level Denver Center
10:53PM 41.2939 -104.4075 72° East 437 503 33,000  Level Denver Center
10:54PM 41.3333 -104.2342 73° East 440 506 33,000  Level Denver Center
10:55PM 41.3689 -104.0850 72° East 442 509 33,000  Level Denver Center
10:56PM 41.4089 -103.9114 73° East 441 507 33,000  Level Denver Center
10:57PM 41.4425 -103.7644 73° East 436 502 33,000  Level Denver Center
10:58PM 41.4831 -103.5897 73° East 439 505 33,000  Level Denver Center
10:59PM 41.5172 -103.4392 73° East 443 510 33,000  Level Denver Center
11:00PM 41.5561 -103.2650 73° East 443 510 33,000  Level Denver Center
11:01PM 41.5897 -103.1153 73° East 441 507 33,000  Level Denver Center
11:02PM 41.6233 -102.9678 73° East 436 502 33,000  Level Denver Center
11:03PM 41.6611 -102.7942 74° East 436 502 33,000  Level Denver Center
11:04PM 41.6933 -102.6469 74° East 433 498 33,000  Level Denver Center
11:05PM 41.7272 -102.4897 74° East 437 503 33,000  Level Denver Center
11:06PM 41.7619 -102.3247 74° East 434 499 33,000  Level Denver Center
11:07PM 41.7967 -102.1672 73° East 435 501 33,000  Level Denver Center
11:08PM 41.8328 -101.9925 74° East 435 501 33,000  Level Denver Center
11:09PM 41.8644 -101.8428 74° East 435 501 33,000  Level Denver Center
11:10PM 41.8958 -101.6911 74° East 439 505 33,000  Level Denver Center
11:11PM 41.9322 -101.5161 74° East 437 503 33,000  Level Denver Center
11:12PM 41.9628 -101.3631 75° East 440 506 33,000  Level Denver Center
11:13PM 41.9992 -101.1808 75° East 448 516 33,000  Level Denver Center
11:14PM 42.0300 -101.0250 75° East 451 519 33,000  Level Denver Center
11:15PM 42.0669 -100.8428 75° East 453 521 33,000  Level Denver Center
11:16PM 42.0969 -100.6892 75° East 444 511 33,000  Level Denver Center
11:17PM 42.1272 -100.5314 75° East 451 519 33,000  Level Denver Center
11:18PM 42.1603 -100.3608 75° East 450 518 33,000  Level Minneapolis Center
11:19PM 42.1922 -100.1986 75° East 449 517 33,000  Level Minneapolis Center
11:20PM 42.2278 -100.0119 76° East 452 520 33,000  Level Denver Center
11:22PM 42.2664 -99.8081 76° East 448 516 33,000  Level Minneapolis Center
11:23PM 42.2964 -99.6458 76° East 446 513 33,000  Level Minneapolis Center
11:23PM 42.3208 -99.5144 76° East 446 513 33,000  Level Denver Center
11:24PM 42.3511 -99.3508 76° East 448 516 33,000  Level Denver Center
11:25PM 42.3808 -99.1828 76° East 454 522 33,000  Level Denver Center
11:26PM 42.4108 -99.0192 76° East 449 517 33,000  Level Denver Center
11:28PM 42.4394 -98.8522 77° East 454 522 33,000  Level Denver Center
11:29PM 42.4669 -98.6886 77° East 448 516 33,000  Level Denver Center
11:30PM 42.4794 -98.4881 85° East 449 517 33,000  Level Minneapolis Center
11:31PM 42.4883 -98.3219 86° East 445 512 33,000  Level Minneapolis Center
11:32PM 42.4964 -98.1544 86° East 445 512 33,000  Level Minneapolis Center
11:33PM 42.5022 -98.0194 87° East 447 514 33,000  Level Minneapolis Center
11:34PM 42.5125 -97.8050 86° East 450 518 33,000  Level Minneapolis Center
11:35PM 42.5197 -97.6344 87° East 453 521 33,000  Level Minneapolis Center
11:36PM 42.5269 -97.4650 87° East 451 519 33,000  Level Minneapolis Center
11:37PM 42.5339 -97.2956 87° East 452 520 33,000  Level Minneapolis Center
11:38PM 42.5400 -97.1272 87° East 448 516 33,000  Level Minneapolis Center
11:39PM 42.5458 -96.9597 87° East 446 513 33,000  Level Minneapolis Center
11:40PM 42.5531 -96.7553 87° East 448 516 33,000  Level Minneapolis Center
11:41PM 42.5589 -96.5847 87° East 452 520 33,000  Level Minneapolis Center
11:42PM 42.5647 -96.4150 87° East 452 520 33,000  Level Minneapolis Center
11:43PM 42.5700 -96.2450 88° East 451 519 33,000  Level Minneapolis Center
11:44PM 42.5742 -96.0756 88° East 449 517 33,000  Level Minneapolis Center
11:45PM 42.5806 -95.8719 87° East 449 517 33,000  Level Minneapolis Center
11:46PM 42.5844 -95.7031 88° East 447 514 33,000  Level Minneapolis Center
11:47PM 42.5883 -95.5331 88° East 449 517 33,000  Level Minneapolis Center
11:48PM 42.5925 -95.3647 88° East 447 514 33,000  Level Minneapolis Center
11:49PM 42.5961 -95.1956 88° East 448 516 33,000  Level Minneapolis Center
11:50PM 42.5997 -95.0275 88° East 446 513 33,000  Level Minneapolis Center
11:51PM 42.6031 -94.8572 88° East 449 517 33,000  Level Minneapolis Center
11:52PM 42.6053 -94.6886 89° East 447 514 33,000  Level Minneapolis Center
11:53PM 42.6081 -94.4936 89° East 449 517 33,000  Level Minneapolis Center
11:54PM 42.6092 -94.3264 89° East 448 516 33,000  Level Minneapolis Center
11:55PM 42.6075 -94.1594 91° East 447 514 33,000  Level Minneapolis Center
11:56PM 42.6019 -93.9931 93° East 447 514 33,000  Level Minneapolis Center
11:57PM 42.5958 -93.8275 93° East 445 512 33,000  Level Minneapolis Center
11:58PM 42.5911 -93.6625 92° East 443 510 33,000  Level Minneapolis Center
11:59PM 42.5847 -93.4961 93° East 444 511 33,000  Level Minneapolis Center
12:01AM 42.5794 -93.3294 92° East 447 514 33,000  Level Minneapolis Center
12:02AM 42.5717 -93.1303 93° East 446 513 33,000  Level Minneapolis Center
12:02AM 42.5675 -93.0303 93° East 445 512 33,000  Level Chicago Center
12:03AM 42.5608 -92.8650 93° East 444 511 33,000  Level Chicago Center
12:04AM 42.5531 -92.7019 94° East 440 506 33,000  Level Chicago Center
12:05AM 42.5461 -92.5369 93° East 444 511 33,000  Level Chicago Center
12:06AM 42.5394 -92.3717 93° East 445 512 33,000  Level Chicago Center
12:07AM 42.5311 -92.2061 94° East 445 512 33,000  Level Chicago Center
12:08AM 42.5228 -92.0106 93° East 441 507 33,000  Level Chicago Center
12:09AM 42.5244 -91.8464 89° East 443 510 33,000  Level Chicago Center
12:10AM 42.5247 -91.6828 90° East 444 511 33,000  Level Chicago Center
12:11AM 42.5253 -91.5189 90° East 445 512 33,000  Level Chicago Center
12:12AM 42.5258 -91.3544 90° East 446 513 33,000  Level Chicago Center
12:13AM 42.5256 -91.1919 90° East 442 509 33,000  Level Chicago Center
12:14AM 42.5261 -91.0272 90° East 443 510 33,000  Level Chicago Center
12:15AM 42.5256 -90.8283 90° East 444 511 33,000  Level Chicago Center
12:16AM 42.5253 -90.6608 90° East 448 516 33,000  Level Chicago Center
12:17AM 42.5228 -90.4975 91° East 442 509 33,000 -840 Level Chicago Center
12:18AM 42.5211 -90.3322 91° East 442 509 31,300 -2,160 Descending Chicago Center
12:19AM 42.5192 -90.1658 91° East 446 513 28,700 -2,580 Descending Chicago Center
12:20AM 42.5061 -90.0019 96° East 444 511 26,200 -2,400 Descending Chicago Center
12:21AM 42.4908 -89.8128 96° East 455 524 23,900 -2,280 Descending Chicago Center
12:22AM 42.4775 -89.6444 96° East 451 519 21,700 -2,160 Descending Chicago Center
12:23AM 42.4633 -89.4828 97° East 436 502 19,600 -1,920 Descending Chicago Center
12:24AM 42.4494 -89.3256 97° East 424 488 17,900 -1,980 Descending Chicago Center
12:25AM 42.4369 -89.1728 96° East 410 472 15,700 -1,920 Descending Chicago Center
12:26AM 42.4239 -89.0258 97° East 398 458 14,100 -1,680 Descending Chicago Center
12:27AM 42.4111 -88.8819 97° East 388 447 12,400 -1,440 Descending Chicago Center
12:28AM 42.3972 -88.7486 98° East 364 419 11,200 -1,200 Descending Chicago Center
12:29AM 42.3842 -88.6294 98° East 328 377 10,100 -1,080 Descending Chicago Center
12:31AM 42.3739 -88.5214 97° East 297 342 9,100 -600 Descending Chicago Center
12:32AM 42.3433 -88.4275 114° Southeast 282 325 9,000 -180 Descending Chicago Center
12:33AM 42.3036 -88.3278 118° Southeast 281 323 8,800 -660 Descending Chicago Center
12:34AM 42.2597 -88.2444 125° Southeast 274 315 7,700 -1,200 Descending Chicago Center
12:35AM 42.2069 -88.1797 138° Southeast 260 299 6,400 -1,380 Descending Chicago Center
12:36AM 42.1522 -88.1186 140° Southeast 258 297 5,000 -1,440 Descending Chicago Center
12:37AM 42.1042 -88.0583 137° Southeast 244 281 3,600 -1,320 Descending Chicago Center
12:38AM 42.0500 -88.0000 141° Southeast 177 204 2,300 -1,200 Descending Chicago TRACON